Time;durP1;ratioP1;P1;durP2;ratioP2;P2;SDS_P1;SDS_P2;PMS_P1;PMS_P2;Temp;Humidity;BMP_temperature;BMP_pressure;BME280_temperature;BME280_humidity;BME280_pressure;Samples;Min_cycle;Max_cycle;Signal;HPM_P1;HPM_P2
2021/01/09 00:01:39;;;;;;;15.85;8.35;;;;;;;;;;6331434;22;20073;-76
2021/01/09 00:04:05;;;;;;;18.77;9.98;;;;;;;;;;6331326;22;20045;-75
2021/01/09 00:06:35;;;;;;;17.23;9.13;;;;;;;;;;6304130;22;20444;-76
2021/01/09 00:09:01;;;;;;;15.20;8.98;;;;;;;;;;6304212;22;20003;-75
2021/01/09 00:11:31;;;;;;;14.38;9.15;;;;;;;;;;6303715;22;19999;-75
2021/01/09 00:13:57;;;;;;;13.10;8.82;;;;;;;;;;6303689;22;20032;-74
2021/01/09 00:16:23;;;;;;;15.80;9.55;;;;;;;;;;6304356;22;20006;-75
2021/01/09 00:18:50;;;;;;;16.08;9.57;;;;;;;;;;6331736;22;20073;-75
2021/01/09 00:21:16;;;;;;;18.10;9.88;;;;;;;;;;6303623;22;20041;-75
2021/01/09 00:23:42;;;;;;;16.10;9.60;;;;;;;;;;6304193;22;20011;-76
2021/01/09 00:26:08;;;;;;;17.52;10.27;;;;;;;;;;6303721;22;20501;-75
2021/01/09 00:28:34;;;;;;;17.83;10.30;;;;;;;;;;6331233;22;20014;-75
2021/01/09 00:31:00;;;;;;;18.52;9.45;;;;;;;;;;6331670;22;20007;-74
2021/01/09 00:33:26;;;;;;;17.58;10.05;;;;;;;;;;6304248;22;20060;-76
2021/01/09 00:35:56;;;;;;;18.30;10.50;;;;;;;;;;6303028;22;20037;-76
2021/01/09 00:38:22;;;;;;;17.63;10.23;;;;;;;;;;6304261;22;19999;-75
2021/01/09 00:40:48;;;;;;;17.75;10.65;;;;;;;;;;6304054;22;20003;-76
2021/01/09 00:43:14;;;;;;;17.55;10.82;;;;;;;;;;6303522;22;20002;-75
2021/01/09 00:45:40;;;;;;;20.05;11.15;;;;;;;;;;6303426;22;20018;-76
2021/01/09 00:48:07;;;;;;;19.98;11.20;;;;;;;;;;6331501;22;20427;-75
2021/01/09 00:50:33;;;;;;;15.75;10.07;;;;;;;;;;6317938;22;20010;-76
2021/01/09 00:52:59;;;;;;;17.63;10.05;;;;;;;;;;6329834;22;20035;-75
2021/01/09 00:55:25;;;;;;;17.95;10.93;;;;;;;;;;6331157;22;20003;-75
2021/01/09 00:57:51;;;;;;;18.75;10.98;;;;;;;;;;6328620;22;20010;-76
2021/01/09 01:00:17;;;;;;;18.00;10.82;;;;;;;;;;6329522;22;20007;-76
2021/01/09 01:02:43;;;;;;;19.52;10.80;;;;;;;;;;6331167;22;20070;-76
2021/01/09 01:05:09;;;;;;;18.63;10.95;;;;;;;;;;6330455;22;20442;-76
2021/01/09 01:07:36;;;;;;;18.85;10.90;;;;;;;;;;6330078;22;20007;-75
2021/01/09 01:10:07;;;;;;;16.73;10.67;;;;;;;;;;6331353;22;20018;-76
2021/01/09 01:12:33;;;;;;;20.25;11.68;;;;;;;;;;6330538;22;20423;-76
2021/01/09 01:14:59;;;;;;;18.88;10.60;;;;;;;;;;6329284;22;20009;-76
2021/01/09 01:17:25;;;;;;;17.20;10.55;;;;;;;;;;6331493;22;19998;-76
2021/01/09 01:19:51;;;;;;;20.38;11.63;;;;;;;;;;6329021;22;20018;-76
2021/01/09 01:22:17;;;;;;;19.35;11.55;;;;;;;;;;6329593;22;20010;-76
2021/01/09 01:24:43;;;;;;;18.85;11.77;;;;;;;;;;6328644;22;20506;-76
2021/01/09 01:27:09;;;;;;;20.17;12.07;;;;;;;;;;6331300;22;20013;-75
2021/01/09 01:29:35;;;;;;;21.13;11.85;;;;;;;;;;6331088;22;20102;-76
2021/01/09 01:32:01;;;;;;;20.75;12.27;;;;;;;;;;6331485;22;20446;-77
2021/01/09 01:34:27;;;;;;;22.23;12.23;;;;;;;;;;6328987;22;20082;-77
2021/01/09 01:36:53;;;;;;;18.60;11.80;;;;;;;;;;6331437;22;19995;-76
2021/01/09 01:39:19;;;;;;;18.15;11.50;;;;;;;;;;6329689;22;20351;-76
2021/01/09 01:41:46;;;;;;;20.52;11.95;;;;;;;;;;6330914;22;19999;-75
2021/01/09 01:44:12;;;;;;;21.65;11.65;;;;;;;;;;6328655;22;20002;-76
2021/01/09 01:46:38;;;;;;;17.95;11.15;;;;;;;;;;6329432;22;20040;-76
2021/01/09 01:49:06;;;;;;;19.73;11.25;;;;;;;;;;6328972;22;20017;-76
2021/01/09 01:51:32;;;;;;;19.13;11.20;;;;;;;;;;6330833;22;20428;-77
2021/01/09 01:53:59;;;;;;;18.10;11.18;;;;;;;;;;6303327;22;20424;-76
2021/01/09 01:56:25;;;;;;;17.48;10.23;;;;;;;;;;6302839;22;20339;-76
2021/01/09 01:58:51;;;;;;;17.50;11.25;;;;;;;;;;6330540;22;19995;-76
2021/01/09 02:01:18;;;;;;;18.63;11.63;;;;;;;;;;6303224;22;20025;-77
2021/01/09 02:03:44;;;;;;;18.85;11.15;;;;;;;;;;6303018;22;20593;-75
2021/01/09 02:06:15;;;;;;;16.65;10.48;;;;;;;;;;6302318;22;20010;-75
2021/01/09 02:08:44;;;;;;;19.00;10.93;;;;;;;;;;6303227;22;20339;-76
2021/01/09 02:11:16;;;;;;;17.77;10.48;;;;;;;;;;6302896;22;20026;-77
2021/01/09 02:13:49;;;;;;;17.90;10.63;;;;;;;;;;6302904;22;20011;-76
2021/01/09 02:16:15;;;;;;;19.02;11.07;;;;;;;;;;6302318;22;20147;-75
2021/01/09 02:18:48;;;;;;;17.00;10.43;;;;;;;;;;6302039;22;19999;-76
2021/01/09 02:21:33;;;;;;;17.13;10.68;;;;;;;;;;6292095;22;20612;-75
2021/01/09 02:23:59;;;;;;;18.10;11.02;;;;;;;;;;6302694;22;20021;-76
2021/01/09 02:26:25;;;;;;;17.65;10.95;;;;;;;;;;6302320;22;20010;-75
2021/01/09 02:28:51;;;;;;;18.42;10.88;;;;;;;;;;6327893;22;19998;-75
2021/01/09 02:31:19;;;;;;;16.33;10.73;;;;;;;;;;6302590;22;20501;-75
2021/01/09 02:33:47;;;;;;;18.17;10.52;;;;;;;;;;6325006;22;19999;-76
2021/01/09 02:36:13;;;;;;;15.43;9.95;;;;;;;;;;6301810;22;20002;-76
2021/01/09 02:38:39;;;;;;;17.95;10.68;;;;;;;;;;6303081;22;20330;-76
2021/01/09 02:41:05;;;;;;;18.27;10.95;;;;;;;;;;6330209;22;20006;-76
2021/01/09 02:43:31;;;;;;;17.17;10.90;;;;;;;;;;6330209;22;19995;-75
2021/01/09 02:45:57;;;;;;;17.55;11.52;;;;;;;;;;6329950;22;20097;-75
2021/01/09 02:48:23;;;;;;;21.30;11.65;;;;;;;;;;6330255;22;20009;-76
2021/01/09 02:50:49;;;;;;;16.70;10.23;;;;;;;;;;6320719;22;20014;-77
2021/01/09 02:53:15;;;;;;;17.38;11.15;;;;;;;;;;6330461;22;19998;-75
2021/01/09 02:55:41;;;;;;;18.52;10.50;;;;;;;;;;6329787;22;19995;-76
2021/01/09 02:58:07;;;;;;;18.15;10.93;;;;;;;;;;6329449;22;20029;-77
2021/01/09 03:00:33;;;;;;;17.98;11.50;;;;;;;;;;6330409;22;19999;-76
2021/01/09 03:02:59;;;;;;;15.65;10.60;;;;;;;;;;6333717;22;20637;-76
2021/01/09 03:05:25;;;;;;;17.73;10.70;;;;;;;;;;6331097;22;20133;-75
2021/01/09 03:07:51;;;;;;;18.13;10.23;;;;;;;;;;6333722;22;20045;-76
2021/01/09 03:10:17;;;;;;;18.02;10.63;;;;;;;;;;6331853;22;20009;-77
2021/01/09 03:12:43;;;;;;;16.98;10.95;;;;;;;;;;6331823;22;20013;-76
2021/01/09 03:15:09;;;;;;;19.70;12.25;;;;;;;;;;6331554;22;20086;-75
2021/01/09 03:17:35;;;;;;;18.90;11.18;;;;;;;;;;6333666;22;19999;-75
2021/01/09 03:20:01;;;;;;;21.08;11.40;;;;;;;;;;6333189;22;19999;-76
2021/01/09 03:22:27;;;;;;;18.75;11.18;;;;;;;;;;6335611;22;19999;-75
2021/01/09 03:24:53;;;;;;;18.60;11.38;;;;;;;;;;6334724;22;20009;-76
2021/01/09 03:27:19;;;;;;;17.98;11.68;;;;;;;;;;6335655;22;20043;-75
2021/01/09 03:29:45;;;;;;;20.38;12.10;;;;;;;;;;6333939;22;20327;-75
2021/01/09 03:32:11;;;;;;;20.08;12.65;;;;;;;;;;6334931;22;20018;-76
2021/01/09 03:34:37;;;;;;;21.75;12.98;;;;;;;;;;6332849;22;20086;-75
2021/01/09 03:37:03;;;;;;;19.80;11.88;;;;;;;;;;6335681;22;20101;-75
2021/01/09 03:39:29;;;;;;;20.13;12.10;;;;;;;;;;6333885;22;19998;-79
2021/01/09 03:41:56;;;;;;;18.20;11.95;;;;;;;;;;6335091;22;20022;-79
2021/01/09 03:44:22;;;;;;;18.95;12.10;;;;;;;;;;6335013;22;19999;-79
2021/01/09 03:46:48;;;;;;;20.98;12.70;;;;;;;;;;6333564;22;20011;-78
2021/01/09 03:49:14;;;;;;;17.17;12.07;;;;;;;;;;6333220;22;20003;-79
2021/01/09 03:51:40;;;;;;;19.02;11.68;;;;;;;;;;6335070;22;20334;-79
2021/01/09 03:54:06;;;;;;;17.52;11.57;;;;;;;;;;6306764;22;20003;-78
2021/01/09 03:56:32;;;;;;;18.00;11.18;;;;;;;;;;6334853;22;19995;-79
2021/01/09 03:58:59;;;;;;;17.50;10.70;;;;;;;;;;6335429;22;20045;-79
2021/01/09 04:01:25;;;;;;;18.20;11.10;;;;;;;;;;6334894;22;20011;-79
2021/01/09 04:03:51;;;;;;;16.52;11.13;;;;;;;;;;6332224;22;20078;-79
2021/01/09 04:06:17;;;;;;;19.55;11.90;;;;;;;;;;6304526;22;20429;-79
2021/01/09 04:08:43;;;;;;;21.25;12.18;;;;;;;;;;6304970;22;20090;-77
2021/01/09 04:11:09;;;;;;;17.15;10.85;;;;;;;;;;6303598;22;20447;-79
2021/01/09 04:13:35;;;;;;;19.27;11.25;;;;;;;;;;6331770;22;19995;-79
2021/01/09 04:16:02;;;;;;;17.20;10.90;;;;;;;;;;6330967;22;20273;-79
2021/01/09 04:18:28;;;;;;;17.80;10.98;;;;;;;;;;6331431;22;20051;-79
2021/01/09 04:20:54;;;;;;;17.15;10.80;;;;;;;;;;6331283;22;19999;-79
2021/01/09 04:23:20;;;;;;;17.58;10.75;;;;;;;;;;6331275;22;20077;-79
2021/01/09 04:25:46;;;;;;;18.00;11.48;;;;;;;;;;6303137;22;20098;-78
2021/01/09 04:28:12;;;;;;;18.73;11.68;;;;;;;;;;6304153;22;20688;-79
2021/01/09 04:30:38;;;;;;;17.17;11.80;;;;;;;;;;6331693;22;20370;-79
2021/01/09 04:33:04;;;;;;;17.73;11.20;;;;;;;;;;6303586;22;20006;-78
2021/01/09 04:35:30;;;;;;;17.25;11.18;;;;;;;;;;6331067;22;20327;-79
2021/01/09 04:37:56;;;;;;;17.92;11.70;;;;;;;;;;6331760;22;20006;-79
2021/01/09 04:40:22;;;;;;;19.63;11.45;;;;;;;;;;6303605;22;20006;-79
2021/01/09 04:42:48;;;;;;;17.25;10.57;;;;;;;;;;6331833;22;20065;-78
2021/01/09 04:45:14;;;;;;;17.23;11.00;;;;;;;;;;6331022;22;20081;-77
2021/01/09 04:47:41;;;;;;;18.60;10.95;;;;;;;;;;6303375;22;20011;-79
2021/01/09 04:50:07;;;;;;;17.08;11.15;;;;;;;;;;6331341;22;20014;-79
2021/01/09 04:52:35;;;;;;;18.08;10.57;;;;;;;;;;6330845;22;20006;-78
2021/01/09 04:55:01;;;;;;;18.08;11.00;;;;;;;;;;6330217;22;20074;-79
2021/01/09 04:57:33;;;;;;;17.30;11.13;;;;;;;;;;6331281;22;19995;-79
2021/01/09 04:59:59;;;;;;;18.60;10.77;;;;;;;;;;6331546;22;20048;-79
2021/01/09 05:02:26;;;;;;;19.60;11.98;;;;;;;;;;6302778;22;20011;-79
2021/01/09 05:04:52;;;;;;;16.92;10.77;;;;;;;;;;6330788;22;20026;-80
2021/01/09 05:07:18;;;;;;;17.67;11.45;;;;;;;;;;6303610;22;20451;-79
2021/01/09 05:09:44;;;;;;;18.35;10.50;;;;;;;;;;6331092;22;20003;-79
2021/01/09 05:12:11;;;;;;;18.13;11.73;;;;;;;;;;6331722;22;20028;-79
2021/01/09 05:14:37;;;;;;;18.63;12.02;;;;;;;;;;6302821;22;20482;-79
2021/01/09 05:17:04;;;;;;;18.20;12.10;;;;;;;;;;6303260;22;19999;-79
2021/01/09 05:19:30;;;;;;;19.20;11.18;;;;;;;;;;6303567;22;20393;-79
2021/01/09 05:22:02;;;;;;;17.88;11.50;;;;;;;;;;6330851;22;20003;-79
2021/01/09 05:24:28;;;;;;;19.75;12.05;;;;;;;;;;6330023;22;20511;-79
2021/01/09 05:26:54;;;;;;;20.38;11.85;;;;;;;;;;6331576;22;20026;-79
2021/01/09 05:29:20;;;;;;;22.10;12.55;;;;;;;;;;6331439;22;20011;-79
2021/01/09 05:31:46;;;;;;;19.90;12.55;;;;;;;;;;6330825;22;20466;-79
2021/01/09 05:34:12;;;;;;;17.77;11.57;;;;;;;;;;6330618;22;20003;-79
2021/01/09 05:36:40;;;;;;;21.50;11.63;;;;;;;;;;6331463;22;20033;-79
2021/01/09 05:39:06;;;;;;;20.88;12.05;;;;;;;;;;6302992;22;20022;-79
2021/01/09 05:41:33;;;;;;;20.67;12.48;;;;;;;;;;6330876;22;20006;-79
2021/01/09 05:44:06;;;;;;;21.48;12.43;;;;;;;;;;6302443;22;20013;-79
2021/01/09 05:46:36;;;;;;;19.45;12.82;;;;;;;;;;6330816;22;20021;-78
2021/01/09 05:49:03;;;;;;;18.63;12.20;;;;;;;;;;6331248;22;19999;-79
2021/01/09 05:51:30;;;;;;;21.63;13.07;;;;;;;;;;6331228;22;20530;-79
2021/01/09 05:53:56;;;;;;;20.05;12.43;;;;;;;;;;6302647;22;20027;-78
2021/01/09 05:56:23;;;;;;;21.10;12.85;;;;;;;;;;6303145;22;19999;-79
2021/01/09 05:58:50;;;;;;;17.40;11.57;;;;;;;;;;6331392;22;20022;-79
2021/01/09 06:01:19;;;;;;;20.17;12.15;;;;;;;;;;6330470;22;20021;-79
2021/01/09 06:03:46;;;;;;;20.13;12.43;;;;;;;;;;6331448;22;19998;-78
2021/01/09 06:06:24;;;;;;;17.35;11.77;;;;;;;;;;6330868;22;20083;-79
2021/01/09 06:08:54;;;;;;;18.83;11.90;;;;;;;;;;6329897;22;20451;-80
2021/01/09 06:11:24;;;;;;;19.08;12.30;;;;;;;;;;6331285;22;20052;-79
2021/01/09 06:13:52;;;;;;;19.67;12.35;;;;;;;;;;6331092;22;20080;-80
2021/01/09 06:16:18;;;;;;;17.80;11.68;;;;;;;;;;6330041;22;20002;-79
2021/01/09 06:18:45;;;;;;;19.65;12.40;;;;;;;;;;6331018;22;20329;-77
2021/01/09 06:21:11;;;;;;;20.42;13.18;;;;;;;;;;6330935;22;20437;-79
2021/01/09 06:23:38;;;;;;;23.17;12.53;;;;;;;;;;6302064;22;20035;-79
2021/01/09 06:26:05;;;;;;;21.10;13.27;;;;;;;;;;6330523;22;20277;-79
2021/01/09 06:28:37;;;;;;;19.85;12.73;;;;;;;;;;6330878;22;20009;-78
2021/01/09 06:31:07;;;;;;;23.23;13.90;;;;;;;;;;6329898;22;20003;-79
2021/01/09 06:33:37;;;;;;;22.00;12.27;;;;;;;;;;6330885;22;20082;-78
2021/01/09 06:36:04;;;;;;;19.52;12.70;;;;;;;;;;6330511;22;19999;-79
2021/01/09 06:38:30;;;;;;;19.13;12.47;;;;;;;;;;6302787;22;20018;-79
2021/01/09 06:40:57;;;;;;;21.55;12.75;;;;;;;;;;6330887;22;19999;-79
2021/01/09 06:43:23;;;;;;;22.58;13.95;;;;;;;;;;6303475;22;20056;-79
2021/01/09 06:45:49;;;;;;;24.58;14.90;;;;;;;;;;6329609;22;19995;-79
2021/01/09 06:48:16;;;;;;;28.30;15.43;;;;;;;;;;6331135;22;20424;-79
2021/01/09 06:50:42;;;;;;;24.52;15.82;;;;;;;;;;6330363;22;20013;-79
2021/01/09 06:53:14;;;;;;;27.05;15.93;;;;;;;;;;6302335;22;19999;-78
2021/01/09 06:55:40;;;;;;;28.73;16.85;;;;;;;;;;6331177;22;20069;-79
2021/01/09 06:58:10;;;;;;;29.75;17.48;;;;;;;;;;6305313;22;20026;-77
2021/01/09 07:00:37;;;;;;;29.33;16.88;;;;;;;;;;6332511;22;20002;-79
2021/01/09 07:03:10;;;;;;;34.20;19.73;;;;;;;;;;6333226;22;20013;-78
2021/01/09 07:05:43;;;;;;;35.88;20.35;;;;;;;;;;6332218;22;20001;-80
2021/01/09 07:08:09;;;;;;;29.98;18.90;;;;;;;;;;6332318;22;20007;-80
2021/01/09 07:10:45;;;;;;;40.03;24.48;;;;;;;;;;6304564;22;20060;-81
2021/01/09 07:13:11;;;;;;;40.75;25.35;;;;;;;;;;6305104;22;20007;-79
2021/01/09 07:15:37;;;;;;;28.73;17.75;;;;;;;;;;6331650;22;19999;-81
2021/01/09 07:18:05;;;;;;;62.97;35.42;;;;;;;;;;6305466;22;20001;-81
2021/01/09 07:20:38;;;;;;;28.65;17.35;;;;;;;;;;6304955;22;20030;-80
2021/01/09 07:23:08;;;;;;;51.90;32.50;;;;;;;;;;6304500;22;20604;-80
2021/01/09 07:25:47;;;;;;;45.47;28.80;;;;;;;;;;6304074;22;20014;-80
2021/01/09 07:28:17;;;;;;;41.83;24.38;;;;;;;;;;6304987;22;20003;-80
2021/01/09 07:30:44;;;;;;;38.05;22.95;;;;;;;;;;6304377;22;19999;-80
2021/01/09 07:33:14;;;;;;;37.20;22.53;;;;;;;;;;6333035;22;20368;-79
2021/01/09 07:35:44;;;;;;;31.70;20.02;;;;;;;;;;6331759;22;20428;-81
2021/01/09 07:38:10;;;;;;;31.20;19.25;;;;;;;;;;6332164;22;19995;-78
2021/01/09 07:40:39;;;;;;;34.85;20.48;;;;;;;;;;6332144;22;20062;-78
2021/01/09 07:43:25;;;;;;;40.53;23.48;;;;;;;;;;6332415;22;20090;-79
2021/01/09 07:45:51;;;;;;;33.47;20.23;;;;;;;;;;6331599;22;20014;-79
2021/01/09 07:48:20;;;;;;;35.88;22.00;;;;;;;;;;6305155;22;20097;-80
2021/01/09 07:50:46;;;;;;;38.92;22.83;;;;;;;;;;6321855;22;20374;-78
2021/01/09 07:53:25;;;;;;;43.83;27.02;;;;;;;;;;6330357;22;19999;-81
2021/01/09 07:55:52;;;;;;;43.88;25.00;;;;;;;;;;6329647;22;19999;-78
2021/01/09 07:58:19;;;;;;;39.88;23.20;;;;;;;;;;6332569;22;20006;-81
2021/01/09 08:00:45;;;;;;;41.60;24.83;;;;;;;;;;6330157;22;19999;-78
2021/01/09 08:03:13;;;;;;;40.35;24.52;;;;;;;;;;6332241;22;20489;-78
2021/01/09 08:05:39;;;;;;;36.63;22.05;;;;;;;;;;6329261;22;20002;-80
2021/01/09 08:08:06;;;;;;;41.85;23.88;;;;;;;;;;6330271;22;20003;-78
2021/01/09 08:10:35;;;;;;;36.35;22.77;;;;;;;;;;6326070;22;20474;-78
2021/01/09 08:13:01;;;;;;;40.22;24.42;;;;;;;;;;6331581;22;20005;-79
2021/01/09 08:15:28;;;;;;;40.08;24.17;;;;;;;;;;6329472;22;20012;-80
2021/01/09 08:17:55;;;;;;;38.25;24.10;;;;;;;;;;6330425;22;20003;-78
2021/01/09 08:20:21;;;;;;;35.25;21.27;;;;;;;;;;6329536;22;20041;-79
2021/01/09 08:22:51;;;;;;;32.22;20.17;;;;;;;;;;6329507;22;20109;-79
2021/01/09 08:25:18;;;;;;;31.67;19.88;;;;;;;;;;6328593;22;20003;-79
2021/01/09 08:27:49;;;;;;;31.33;17.92;;;;;;;;;;6329179;22;20003;-79
2021/01/09 08:30:16;;;;;;;33.35;20.50;;;;;;;;;;6329919;22;20068;-79
2021/01/09 08:32:42;;;;;;;30.65;18.73;;;;;;;;;;6330245;22;20331;-79
2021/01/09 08:35:09;;;;;;;41.08;24.45;;;;;;;;;;6329087;22;19999;-79
2021/01/09 08:37:35;;;;;;;42.60;24.95;;;;;;;;;;6331728;22;19998;-77
2021/01/09 08:40:17;;;;;;;42.13;25.00;;;;;;;;;;6332858;22;20017;-78
2021/01/09 08:43:00;;;;;;;40.67;23.95;;;;;;;;;;6331749;22;20009;-78
2021/01/09 08:45:35;;;;;;;38.08;23.40;;;;;;;;;;6330109;22;20048;-78
2021/01/09 08:48:02;;;;;;;39.38;24.25;;;;;;;;;;6332305;22;20059;-78
2021/01/09 08:50:28;;;;;;;40.47;23.45;;;;;;;;;;6330000;22;20374;-79
2021/01/09 08:52:57;;;;;;;38.67;23.05;;;;;;;;;;6332212;22;20003;-79
2021/01/09 08:55:24;;;;;;;42.63;24.98;;;;;;;;;;6331998;22;20432;-79
2021/01/09 08:57:50;;;;;;;44.70;25.15;;;;;;;;;;6332456;22;20030;-78
2021/01/09 09:00:16;;;;;;;39.90;24.02;;;;;;;;;;6330714;22;20006;-78
2021/01/09 09:02:42;;;;;;;38.20;22.95;;;;;;;;;;6330651;22;20431;-78
2021/01/09 09:05:09;;;;;;;41.22;23.92;;;;;;;;;;6329237;22;20320;-79
2021/01/09 09:07:39;;;;;;;39.60;24.17;;;;;;;;;;6332317;22;20026;-78
2021/01/09 09:10:07;;;;;;;38.75;22.65;;;;;;;;;;6331620;22;20013;-79
2021/01/09 09:12:33;;;;;;;33.97;21.85;;;;;;;;;;6330121;22;20336;-78
2021/01/09 09:15:06;;;;;;;33.38;20.45;;;;;;;;;;6330193;22;19998;-78
2021/01/09 09:17:32;;;;;;;34.50;21.23;;;;;;;;;;6331958;22;20102;-79
2021/01/09 09:19:58;;;;;;;36.92;21.90;;;;;;;;;;6331018;22;19998;-80
2021/01/09 09:22:29;;;;;;;37.70;22.02;;;;;;;;;;6332954;22;20007;-78
2021/01/09 09:24:55;;;;;;;39.55;22.63;;;;;;;;;;6332236;22;20356;-78
2021/01/09 09:27:25;;;;;;;35.97;22.27;;;;;;;;;;6330210;22;20011;-79
2021/01/09 09:30:11;;;;;;;41.95;24.50;;;;;;;;;;6332262;22;20301;-78
2021/01/09 09:32:38;;;;;;;40.92;23.83;;;;;;;;;;6331553;22;20060;-79
2021/01/09 09:35:22;;;;;;;53.10;27.93;;;;;;;;;;6329744;22;20002;-78
2021/01/09 09:37:48;;;;;;;68.93;34.15;;;;;;;;;;6332221;22;20074;-77
2021/01/09 09:40:41;;;;;;;57.75;28.55;;;;;;;;;;6332725;22;20002;-79
2021/01/09 09:43:11;;;;;;;51.10;26.67;;;;;;;;;;6326166;22;20593;-79
2021/01/09 09:45:37;;;;;;;42.88;23.83;;;;;;;;;;6330861;22;20003;-79
2021/01/09 09:48:03;;;;;;;43.08;23.95;;;;;;;;;;6329602;22;20091;-80
2021/01/09 09:50:29;;;;;;;36.33;20.58;;;;;;;;;;6328851;22;20003;-78
2021/01/09 09:53:02;;;;;;;35.28;20.48;;;;;;;;;;6329372;22;20033;-79
2021/01/09 09:55:28;;;;;;;35.33;20.60;;;;;;;;;;6327359;22;20003;-78
2021/01/09 09:58:04;;;;;;;27.15;16.73;;;;;;;;;;6329450;22;20022;-79
2021/01/09 10:00:30;;;;;;;31.55;18.35;;;;;;;;;;6331071;22;19998;-78
2021/01/09 10:02:57;;;;;;;36.85;20.95;;;;;;;;;;6331838;22;20025;-78
2021/01/09 10:05:23;;;;;;;24.85;15.52;;;;;;;;;;6331663;22;19999;-79
2021/01/09 10:07:49;;;;;;;27.80;17.40;;;;;;;;;;6331602;22;20003;-78
2021/01/09 10:10:19;;;;;;;26.42;16.42;;;;;;;;;;6330104;22;20003;-79
2021/01/09 10:12:55;;;;;;;26.67;17.02;;;;;;;;;;6331770;22;20003;-79
2021/01/09 10:15:21;;;;;;;27.33;16.50;;;;;;;;;;6329714;22;20030;-78
2021/01/09 10:17:57;;;;;;;23.58;14.75;;;;;;;;;;6329916;22;20031;-77
2021/01/09 10:20:23;;;;;;;22.88;14.30;;;;;;;;;;6331707;22;19995;-77
2021/01/09 10:22:49;;;;;;;23.48;13.85;;;;;;;;;;6330012;22;20006;-78
2021/01/09 10:25:15;;;;;;;23.77;15.07;;;;;;;;;;6329531;22;20055;-79
2021/01/09 10:27:41;;;;;;;27.65;16.63;;;;;;;;;;6331566;22;20351;-78
2021/01/09 10:30:07;;;;;;;28.38;16.48;;;;;;;;;;6332419;22;20006;-79
2021/01/09 10:32:33;;;;;;;27.38;15.43;;;;;;;;;;6330996;22;20011;-79
2021/01/09 10:34:59;;;;;;;32.45;17.27;;;;;;;;;;6332318;22;20014;-79
2021/01/09 10:37:25;;;;;;;39.72;17.75;;;;;;;;;;6332141;22;20085;-78
2021/01/09 10:39:51;;;;;;;27.77;17.40;;;;;;;;;;6331126;22;20324;-79
2021/01/09 10:42:17;;;;;;;27.98;17.75;;;;;;;;;;6330828;22;20003;-79
2021/01/09 10:44:44;;;;;;;25.90;17.13;;;;;;;;;;6329894;22;20002;-79
2021/01/09 10:47:09;;;;;;;30.77;17.85;;;;;;;;;;6330815;22;20091;-78
2021/01/09 10:49:36;;;;;;;28.80;16.77;;;;;;;;;;6330366;22;20019;-79
2021/01/09 10:52:02;;;;;;;26.95;16.98;;;;;;;;;;6331111;22;20002;-79
2021/01/09 10:54:28;;;;;;;23.85;15.35;;;;;;;;;;6332403;22;19995;-79
2021/01/09 10:56:54;;;;;;;32.17;18.27;;;;;;;;;;6330638;22;20577;-79
2021/01/09 10:59:20;;;;;;;29.27;17.17;;;;;;;;;;6330284;22;20003;-79
2021/01/09 11:01:46;;;;;;;26.33;15.90;;;;;;;;;;6330173;22;20013;-78
2021/01/09 11:04:11;;;;;;;28.08;16.75;;;;;;;;;;6331518;22;20105;-79
2021/01/09 11:06:38;;;;;;;22.10;14.38;;;;;;;;;;6330222;22;20007;-79
2021/01/09 11:09:05;;;;;;;25.58;16.02;;;;;;;;;;6332002;22;20040;-78
2021/01/09 11:11:31;;;;;;;26.58;16.50;;;;;;;;;;6332495;22;20057;-78
2021/01/09 11:13:58;;;;;;;26.05;15.30;;;;;;;;;;6332711;22;20003;-79
2021/01/09 11:16:25;;;;;;;24.75;15.60;;;;;;;;;;6331059;22;20277;-78
2021/01/09 11:18:51;;;;;;;28.63;17.65;;;;;;;;;;6331112;22;19999;-78
2021/01/09 11:21:20;;;;;;;33.43;19.70;;;;;;;;;;6332036;22;20416;-77
2021/01/09 11:23:47;;;;;;;35.80;20.73;;;;;;;;;;6330626;22;20016;-79
2021/01/09 11:26:13;;;;;;;33.75;20.85;;;;;;;;;;6331359;22;20069;-79
2021/01/09 11:28:39;;;;;;;34.53;20.20;;;;;;;;;;6330154;22;20093;-78
2021/01/09 11:31:09;;;;;;;33.80;20.73;;;;;;;;;;6329627;22;20018;-79
2021/01/09 11:33:35;;;;;;;33.55;19.90;;;;;;;;;;6330729;22;20030;-78
2021/01/09 11:36:01;;;;;;;34.00;20.52;;;;;;;;;;6331611;22;20005;-79
2021/01/09 11:38:27;;;;;;;34.50;20.52;;;;;;;;;;6332912;22;20028;-79
2021/01/09 11:40:53;;;;;;;35.72;19.65;;;;;;;;;;6329976;22;20558;-77
2021/01/09 11:43:19;;;;;;;31.88;19.25;;;;;;;;;;6331619;22;20031;-79
2021/01/09 11:45:45;;;;;;;32.20;18.83;;;;;;;;;;6331379;22;19998;-79
2021/01/09 11:48:11;;;;;;;31.13;18.02;;;;;;;;;;6333647;22;20031;-79
2021/01/09 11:50:37;;;;;;;30.20;18.08;;;;;;;;;;6331910;22;20014;-78
2021/01/09 11:53:03;;;;;;;23.70;15.00;;;;;;;;;;6333322;22;20003;-79
2021/01/09 11:55:29;;;;;;;27.05;16.48;;;;;;;;;;6333051;22;20139;-79
2021/01/09 11:57:55;;;;;;;28.65;16.95;;;;;;;;;;6333869;22;20100;-79
2021/01/09 12:00:21;;;;;;;24.48;14.98;;;;;;;;;;6332363;22;20013;-78
2021/01/09 12:02:47;;;;;;;26.08;14.55;;;;;;;;;;6332434;22;20007;-79
2021/01/09 12:05:13;;;;;;;24.65;14.93;;;;;;;;;;6331278;22;20101;-79
2021/01/09 12:07:39;;;;;;;21.00;13.10;;;;;;;;;;6334253;22;20082;-77
2021/01/09 12:10:07;;;;;;;19.63;12.43;;;;;;;;;;6331413;22;20034;-78
2021/01/09 12:12:34;;;;;;;22.33;13.43;;;;;;;;;;6331291;22;20011;-79
2021/01/09 12:15:00;;;;;;;17.83;11.10;;;;;;;;;;6332965;22;19999;-79
2021/01/09 12:17:26;;;;;;;20.58;12.15;;;;;;;;;;6333325;22;19999;-79
2021/01/09 12:19:52;;;;;;;16.85;10.82;;;;;;;;;;6334808;22;20006;-78
2021/01/09 12:22:18;;;;;;;18.58;10.80;;;;;;;;;;6331362;22;20462;-79
2021/01/09 12:24:44;;;;;;;17.02;11.20;;;;;;;;;;6331172;22;20049;-78
2021/01/09 12:27:11;;;;;;;17.77;10.80;;;;;;;;;;6330098;22;20012;-80
2021/01/09 12:29:37;;;;;;;14.27;9.88;;;;;;;;;;6330504;22;20031;-78
2021/01/09 12:32:03;;;;;;;15.93;10.48;;;;;;;;;;6329540;22;20014;-78
2021/01/09 12:34:29;;;;;;;13.85;9.95;;;;;;;;;;6329296;22;20090;-78
2021/01/09 12:36:55;;;;;;;15.75;10.57;;;;;;;;;;6330052;22;20081;-78
2021/01/09 12:39:21;;;;;;;16.60;11.00;;;;;;;;;;6332394;22;20505;-78
2021/01/09 12:41:48;;;;;;;16.98;11.30;;;;;;;;;;6329542;22;20085;-77
2021/01/09 12:44:14;;;;;;;17.05;11.05;;;;;;;;;;6331057;22;20052;-77
2021/01/09 12:46:42;;;;;;;17.35;11.57;;;;;;;;;;6331629;22;20607;-78
2021/01/09 12:49:11;;;;;;;21.38;12.27;;;;;;;;;;6333709;22;20049;-78
2021/01/09 12:51:37;;;;;;;19.67;11.23;;;;;;;;;;6305535;22;20358;-78
2021/01/09 12:54:04;;;;;;;19.15;10.77;;;;;;;;;;6332594;22;20022;-79
2021/01/09 12:56:32;;;;;;;16.60;10.38;;;;;;;;;;6333444;22;20003;-78
2021/01/09 12:58:59;;;;;;;16.50;10.85;;;;;;;;;;6305401;22;20487;-78
2021/01/09 13:01:31;;;;;;;17.17;10.60;;;;;;;;;;6305098;22;20038;-79
2021/01/09 13:03:57;;;;;;;18.30;10.93;;;;;;;;;;6305454;22;20455;-78
2021/01/09 13:06:24;;;;;;;16.75;11.10;;;;;;;;;;6304430;22;20089;-78
2021/01/09 13:08:50;;;;;;;16.60;10.10;;;;;;;;;;6305483;22;20056;-78
2021/01/09 13:11:16;;;;;;;15.20;9.75;;;;;;;;;;6305880;22;20010;-78
2021/01/09 13:13:44;;;;;;;16.80;10.45;;;;;;;;;;6306424;22;20006;-78
2021/01/09 13:16:10;;;;;;;;;;;;;;;;;;6305933;22;19995;-77
2021/01/09 13:18:36;;;;;;;17.67;11.02;;;;;;;;;;6332982;22;19982;-78
2021/01/09 13:21:04;;;;;;;19.33;9.82;;;;;;;;;;6333259;22;20002;-78
2021/01/09 13:23:30;;;;;;;16.02;9.70;;;;;;;;;;6305236;22;20028;-79
2021/01/09 13:26:00;;;;;;;17.42;10.43;;;;;;;;;;6305017;22;20030;-77
2021/01/09 13:28:26;;;;;;;16.40;10.38;;;;;;;;;;6305380;22;20026;-78
2021/01/09 13:30:52;;;;;;;17.45;10.45;;;;;;;;;;6305149;22;20009;-79
2021/01/09 13:33:18;;;;;;;19.30;11.18;;;;;;;;;;6305435;22;20548;-79
2021/01/09 13:35:44;;;;;;;18.42;10.63;;;;;;;;;;6332005;22;20127;-77
2021/01/09 13:38:10;;;;;;;17.75;12.35;;;;;;;;;;6301398;22;20003;-79
2021/01/09 13:40:36;;;;;;;19.48;12.45;;;;;;;;;;6332675;22;20003;-78
2021/01/09 13:43:02;;;;;;;19.50;12.27;;;;;;;;;;6332325;22;19999;-79
2021/01/09 13:45:28;;;;;;;20.13;12.40;;;;;;;;;;6331931;22;20303;-77
2021/01/09 13:47:54;;;;;;;18.77;11.82;;;;;;;;;;6332473;22;20028;-78
2021/01/09 13:50:19;;;;;;;19.70;11.85;;;;;;;;;;6317179;22;20431;-78
2021/01/09 13:52:51;;;;;;;19.77;11.93;;;;;;;;;;6330547;22;19999;-79
2021/01/09 13:55:17;;;;;;;20.33;12.50;;;;;;;;;;6332273;22;19998;-78
2021/01/09 13:57:44;;;;;;;20.80;12.30;;;;;;;;;;6331508;22;19998;-79
2021/01/09 14:00:11;;;;;;;22.25;13.30;;;;;;;;;;6331090;22;20080;-79
2021/01/09 14:02:37;;;;;;;19.67;11.80;;;;;;;;;;6331111;22;20036;-79
2021/01/09 14:05:03;;;;;;;21.88;13.00;;;;;;;;;;6330109;22;20007;-77
2021/01/09 14:07:29;;;;;;;27.98;16.42;;;;;;;;;;6331136;22;20140;-79
2021/01/09 14:09:55;;;;;;;19.75;11.80;;;;;;;;;;6331010;22;20053;-78
2021/01/09 14:12:21;;;;;;;19.63;11.25;;;;;;;;;;6332802;22;20011;-78
2021/01/09 14:14:47;;;;;;;19.70;11.30;;;;;;;;;;6332375;22;19999;-77
2021/01/09 14:17:13;;;;;;;24.38;13.35;;;;;;;;;;6331005;22;20476;-78
2021/01/09 14:19:39;;;;;;;20.92;11.38;;;;;;;;;;6330775;22;19999;-77